Payerne Airport LSMP

Flugplatz Daten

Name: Payerne Airport

Ident: LSMP

Lat: 46,84320068

Long: 6,915060043

Platzhöhe: 1465 ft

IataCode:

City:

Metar

2022/08/10 20:20
LSMP 102020Z AUTO 04004KT 9999NDV NCD 21/10 Q1020 RMK

Taf

2022/08/10 17:00
TAF LSMP 101625Z 1017/1123 04007KT CAVOK
Gewünschte Webcam nicht vorhanden? Dann fügen Sie eine hinzu. Sie wird dann so schnell wie möglich freigeschaltet
Url: Title: